Time;durP1;ratioP1;P1;durP2;ratioP2;P2;SDS_P1;SDS_P2;PMS_P1;PMS_P2;Temp;Humidity;BMP_temperature;BMP_pressure;BME280_temperature;BME280_humidity;BME280_pressure;Samples;Min_cycle;Max_cycle;Signal;HPM_P1;HPM_P2
2021/06/14 00:01:04;;;;;;;6.85;3.08;;;435.80;1664.00;;;;;;4853508;29;20032;-80
2021/06/14 00:03:30;;;;;;;7.68;2.58;;;435.60;1664.00;;;;;;4849195;29;20029;-79
2021/06/14 00:05:55;;;;;;;8.05;2.72;;;435.60;1664.00;;;;;;4868558;29;20021;-79
2021/06/14 00:08:23;;;;;;;11.50;3.00;;;435.80;1664.00;;;;;;4848523;29;20093;-79
2021/06/14 00:10:52;;;;;;;7.63;2.58;;;435.80;1638.40;;;;;;4850496;29;20040;-79
2021/06/14 00:13:19;;;;;;;6.07;2.83;;;435.80;1612.80;;;;;;4847128;29;20032;-80
2021/06/14 00:15:47;;;;;;;6.35;2.40;;;435.70;1638.40;;;;;;4863755;29;20065;-79
2021/06/14 00:18:14;;;;;;;6.35;2.22;;;435.90;1612.80;;;;;;4848455;29;20021;-78
2021/06/14 00:20:41;;;;;;;4.57;2.13;;;435.60;1638.40;;;;;;4870583;29;20510;-79
2021/06/14 00:23:08;;;;;;;9.85;2.47;;;435.60;1638.40;;;;;;4847429;29;20057;-79
2021/06/14 00:25:35;;;;;;;7.10;2.35;;;435.80;1612.80;;;;;;4846568;29;20392;-79
2021/06/14 00:28:02;;;;;;;8.00;2.60;;;435.80;1638.40;;;;;;4847832;29;20029;-79
2021/06/14 00:30:40;;;;;;;10.90;2.33;;;435.90;1638.40;;;;;;4852009;29;20398;-79
2021/06/14 00:33:06;;;;;;;6.30;3.00;;;435.80;1638.40;;;;;;4866731;29;20026;-79
2021/06/14 00:35:33;;;;;;;5.07;2.47;;;435.60;1664.00;;;;;;4859335;29;20082;-79
2021/06/14 00:37:58;;;;;;;5.88;2.20;;;435.60;1664.00;;;;;;4851347;29;20033;-79
2021/06/14 00:40:25;;;;;;;7.05;3.00;;;435.50;1664.00;;;;;;4869731;29;20480;-79
2021/06/14 00:42:51;;;;;;;9.02;3.15;;;435.50;1664.00;;;;;;4863138;29;20045;-79
2021/06/14 00:45:20;;;;;;;6.93;2.35;;;435.50;1664.00;;;;;;4851349;29;20025;-80
2021/06/14 00:47:46;;;;;;;12.40;2.78;;;435.30;1664.00;;;;;;4859583;29;20022;-79
2021/06/14 00:50:15;;;;;;;4.63;2.00;;;435.30;1689.60;;;;;;4855359;29;20025;-79
2021/06/14 00:52:41;;;;;;;4.97;2.53;;;435.30;1664.00;;;;;;4863385;29;20493;-79
2021/06/14 00:55:09;;;;;;;6.50;2.83;;;435.20;1664.00;;;;;;4864187;29;20025;-79
2021/06/14 00:57:35;;;;;;;7.32;2.60;;;435.30;1664.00;;;;;;4868086;29;20043;-79
2021/06/14 01:00:01;;;;;;;8.63;2.70;;;435.40;1664.00;;;;;;4872102;29;20361;-79
2021/06/14 01:02:27;;;;;;;7.28;3.03;;;435.20;1689.60;;;;;;4848449;29;20064;-80
2021/06/14 01:04:54;;;;;;;5.72;2.33;;;435.20;1689.60;;;;;;4867834;29;20353;-79
2021/06/14 01:07:20;;;;;;;7.90;2.53;;;410.50;1689.60;;;;;;4863974;29;20155;-79
2021/06/14 01:09:46;;;;;;;10.55;3.15;;;410.50;1689.60;;;;;;4867690;29;20560;-79
2021/06/14 01:12:14;;;;;;;4.53;2.40;;;410.40;1689.60;;;;;;4846808;29;20037;-79
2021/06/14 01:15:00;;;;;;;7.22;2.42;;;410.50;1689.60;;;;;;4846941;29;20029;-79
2021/06/14 01:17:36;;;;;;;4.30;2.60;;;410.50;1664.00;;;;;;4862245;29;20029;-79
2021/06/14 01:20:20;;;;;;;6.97;2.70;;;410.30;1689.60;;;;;;4864570;29;20265;-79
2021/06/14 01:23:05;;;;;;;8.40;2.90;;;410.30;1689.60;;;;;;4845834;29;20058;-79
2021/06/14 01:25:50;;;;;;;9.40;3.38;;;410.30;1715.20;;;;;;4869079;29;20080;-79
2021/06/14 01:28:19;;;;;;;9.30;3.92;;;410.10;1715.20;;;;;;4846695;29;20026;-79
2021/06/14 01:30:46;;;;;;;14.00;4.13;;;410.00;1715.20;;;;;;4863353;29;20540;-79
2021/06/14 01:33:14;;;;;;;10.27;3.95;;;410.20;1689.60;;;;;;4859094;29;20032;-79
2021/06/14 01:35:53;;;;;;;8.05;3.65;;;410.20;1689.60;;;;;;4845613;29;20029;-79
2021/06/14 01:38:21;;;;;;;7.78;3.20;;;410.10;1689.60;;;;;;4850298;29;20169;-79
2021/06/14 01:40:49;;;;;;;7.90;2.80;;;410.10;1689.60;;;;;;4860924;29;20037;-79
2021/06/14 01:43:16;;;;;;;7.05;2.67;;;410.00;1689.60;;;;;;4865058;29;20117;-79
2021/06/14 01:45:47;;;;;;;6.97;2.30;;;409.90;1715.20;;;;;;4864112;29;20033;-78
2021/06/14 01:48:14;;;;;;;5.97;2.45;;;409.80;1715.20;;;;;;4864083;29;20095;-79
2021/06/14 01:50:41;;;;;;;5.60;3.13;;;409.80;1715.20;;;;;;4862857;29;20028;-79
2021/06/14 01:53:07;;;;;;;12.23;2.72;;;409.70;1740.80;;;;;;4845925;29;20051;-79
2021/06/14 01:55:34;;;;;;;3.65;2.05;;;409.80;1715.20;;;;;;4848081;29;20484;-79
2021/06/14 01:58:00;;;;;;;7.85;2.83;;;409.70;1740.80;;;;;;4856129;29;20044;-79
2021/06/14 02:00:27;;;;;;;8.10;2.65;;;409.70;1740.80;;;;;;4847051;29;20032;-79
2021/06/14 02:02:53;;;;;;;7.53;2.78;;;409.70;1715.20;;;;;;4845821;29;20511;-79
2021/06/14 02:05:24;;;;;;;5.35;2.90;;;409.70;1740.80;;;;;;4844470;29;20035;-79
2021/06/14 02:07:51;;;;;;;15.13;3.00;;;409.70;1740.80;;;;;;4851009;29;20025;-79
2021/06/14 02:10:19;;;;;;;9.20;2.53;;;409.60;1740.80;;;;;;4843907;29;20128;-78
2021/06/14 02:12:46;;;;;;;11.43;2.90;;;384.90;1740.80;;;;;;4861175;29;20025;-79
2021/06/14 02:15:16;;;;;;;5.32;2.88;;;384.90;1740.80;;;;;;4848333;29;20272;-79
2021/06/14 02:17:42;;;;;;;10.15;3.13;;;384.90;1715.20;;;;;;4843265;29;20045;-79
2021/06/14 02:20:09;;;;;;;6.18;2.33;;;409.70;1740.80;;;;;;4867511;29;20060;-79
2021/06/14 02:22:37;;;;;;;5.82;2.53;;;409.70;1740.80;;;;;;4847011;29;20485;-79
2021/06/14 02:25:08;;;;;;;8.93;3.17;;;409.70;1740.80;;;;;;4849649;29;20029;-79
2021/06/14 02:27:34;;;;;;;7.10;2.47;;;409.70;1740.80;;;;;;4844510;29;20059;-79
2021/06/14 02:30:03;;;;;;;5.10;2.22;;;409.70;1766.40;;;;;;4861503;29;20514;-78
2021/06/14 02:32:31;;;;;;;6.85;3.42;;;409.60;1766.40;;;;;;4847233;29;20026;-79
2021/06/14 02:34:57;;;;;;;8.85;2.85;;;409.70;1766.40;;;;;;4845291;29;20033;-79
2021/06/14 02:37:23;;;;;;;7.47;2.72;;;409.70;1740.80;;;;;;4860352;29;20033;-79
2021/06/14 02:39:51;;;;;;;8.05;3.22;;;409.60;1740.80;;;;;;4862770;29;20030;-79
2021/06/14 02:42:17;;;;;;;6.40;2.65;;;409.70;1766.40;;;;;;4863268;29;20042;-79
2021/06/14 02:44:45;;;;;;;6.43;2.88;;;409.90;1740.80;;;;;;4845044;29;20030;-79
2021/06/14 02:47:13;;;;;;;8.43;2.80;;;409.70;1740.80;;;;;;4844077;29;20025;-79
2021/06/14 02:49:40;;;;;;;12.02;2.85;;;410.00;1715.20;;;;;;4857509;29;20021;-79
2021/06/14 02:52:13;;;;;;;10.15;2.70;;;410.00;1740.80;;;;;;4860670;29;20572;-79
2021/06/14 02:54:54;;;;;;;8.27;2.70;;;409.90;1740.80;;;;;;4857605;29;20029;-78
2021/06/14 02:57:22;;;;;;;9.02;3.03;;;409.70;1740.80;;;;;;4874111;29;20104;-79
2021/06/14 02:59:51;;;;;;;7.75;3.13;;;409.60;1740.80;;;;;;4845551;29;20081;-79
2021/06/14 03:02:21;;;;;;;6.80;2.67;;;409.70;1740.80;;;;;;4845022;29;20045;-79
2021/06/14 03:04:47;;;;;;;4.88;2.17;;;409.60;1740.80;;;;;;4847468;29;20022;-79
2021/06/14 03:07:14;;;;;;;7.60;2.47;;;409.70;1740.80;;;;;;4859548;29;20404;-79
2021/06/14 03:09:40;;;;;;;6.00;2.95;;;409.90;1715.20;;;;;;4861083;29;20035;-79
2021/06/14 03:12:06;;;;;;;5.30;2.72;;;410.10;1715.20;;;;;;4865323;29;20025;-79
2021/06/14 03:14:34;;;;;;;9.98;2.95;;;410.20;1689.60;;;;;;4845189;29;20021;-79
2021/06/14 03:17:01;;;;;;;7.93;2.67;;;410.10;1715.20;;;;;;4865682;29;20032;-79
2021/06/14 03:19:28;;;;;;;5.40;2.90;;;410.20;1740.80;;;;;;4865010;29;20057;-79
2021/06/14 03:21:54;;;;;;;5.82;2.63;;;410.00;1766.40;;;;;;4867449;29;20037;-79
2021/06/14 03:24:19;;;;;;;8.38;2.97;;;410.00;1766.40;;;;;;4866782;29;20028;-79
2021/06/14 03:26:46;;;;;;;5.78;3.00;;;410.00;1792.00;;;;;;4872951;29;20036;-79
2021/06/14 03:29:21;;;;;;;6.80;2.85;;;409.90;1792.00;;;;;;4848521;29;20025;-79
2021/06/14 03:31:49;;;;;;;7.13;3.22;;;410.00;1792.00;;;;;;4861066;29;20025;-79
2021/06/14 03:34:16;;;;;;;6.20;2.30;;;410.00;1792.00;;;;;;4847672;29;20077;-79
2021/06/14 03:36:42;;;;;;;8.95;2.90;;;410.00;1766.40;;;;;;4864861;29;20112;-79
2021/06/14 03:39:08;;;;;;;5.05;2.30;;;410.00;1766.40;;;;;;4865822;29;20047;-79
2021/06/14 03:41:34;;;;;;;8.30;3.60;;;410.10;1740.80;;;;;;4851357;29;20114;-79
2021/06/14 03:44:03;;;;;;;5.65;3.58;;;410.00;1740.80;;;;;;4864136;29;20033;-79
2021/06/14 03:46:30;;;;;;;8.25;2.65;;;410.00;1740.80;;;;;;4863490;29;20108;-76
2021/06/14 03:48:55;;;;;;;7.13;3.03;;;410.10;1766.40;;;;;;4864678;29;20089;-76
2021/06/14 03:51:21;;;;;;;10.50;3.47;;;410.00;1766.40;;;;;;4864330;29;20510;-77
2021/06/14 03:53:59;;;;;;;4.82;2.85;;;410.00;1792.00;;;;;;4849266;29;20037;-77
2021/06/14 03:56:27;;;;;;;6.78;2.97;;;409.90;1792.00;;;;;;4860511;29;20077;-78
2021/06/14 03:58:53;;;;;;;4.35;2.38;;;409.90;1792.00;;;;;;4868116;29;20022;-78
2021/06/14 04:01:19;;;;;;;8.73;2.47;;;409.90;1792.00;;;;;;4860378;29;20040;-78
2021/06/14 04:03:53;;;;;;;8.50;2.90;;;410.10;1766.40;;;;;;4869461;29;20482;-80
2021/06/14 04:06:19;;;;;;;5.13;2.47;;;409.90;1766.40;;;;;;4864619;29;20029;-80
2021/06/14 04:08:45;;;;;;;6.57;2.90;;;410.00;1766.40;;;;;;4872829;29;20025;-80
2021/06/14 04:11:11;;;;;;;5.75;2.90;;;409.80;1792.00;;;;;;4863725;29;20036;-78
2021/06/14 04:13:37;;;;;;;4.22;2.85;;;410.00;1792.00;;;;;;4864276;29;20373;-79
2021/06/14 04:16:02;;;;;;;9.63;2.95;;;409.60;1817.60;;;;;;4862988;29;20124;-79
2021/06/14 04:18:28;;;;;;;4.32;2.10;;;409.70;1792.00;;;;;;4880804;29;20052;-77
2021/06/14 04:20:54;;;;;;;7.50;2.60;;;409.70;1792.00;;;;;;4880414;29;20057;-80
2021/06/14 04:23:19;;;;;;;5.30;2.33;;;409.70;1766.40;;;;;;4880202;29;20056;-77
2021/06/14 04:25:45;;;;;;;8.13;3.35;;;409.80;1792.00;;;;;;4863439;29;20261;-76
2021/06/14 04:28:11;;;;;;;7.80;2.83;;;409.70;1792.00;;;;;;4880086;29;20492;-79
2021/06/14 04:30:37;;;;;;;6.88;2.88;;;409.70;1766.40;;;;;;4880418;29;20048;-82
2021/06/14 04:33:03;;;;;;;9.70;3.72;;;409.90;1766.40;;;;;;4880312;29;20051;-80
2021/06/14 04:35:29;;;;;;;7.95;2.55;;;410.00;1766.40;;;;;;4863476;29;20124;-81
2021/06/14 04:37:55;;;;;;;7.50;2.85;;;410.10;1766.40;;;;;;4863438;29;20125;-82
2021/06/14 04:40:21;;;;;;;9.80;4.07;;;410.10;1740.80;;;;;;4868862;29;20029;-82
2021/06/14 04:42:46;;;;;;;9.98;3.38;;;410.20;1740.80;;;;;;4848943;29;20124;-79
2021/06/14 04:45:13;;;;;;;5.70;2.60;;;410.50;1715.20;;;;;;4849130;29;20037;-81
2021/06/14 04:47:39;;;;;;;8.43;2.55;;;435.20;1715.20;;;;;;4865141;29;20566;-81
2021/06/14 04:50:06;;;;;;;5.45;2.97;;;435.30;1715.20;;;;;;4873464;29;20160;-80
2021/06/14 04:52:32;;;;;;;10.57;3.72;;;435.30;1689.60;;;;;;4857043;29;20040;-81
2021/06/14 04:54:58;;;;;;;8.18;3.67;;;435.30;1689.60;;;;;;4879990;29;20021;-82
2021/06/14 04:57:24;;;;;;;11.45;2.88;;;435.30;1689.60;;;;;;4880029;29;20032;-81
2021/06/14 04:59:51;;;;;;;6.65;3.38;;;435.30;1689.60;;;;;;4863303;29;20578;-81
2021/06/14 05:02:17;;;;;;;8.43;2.85;;;435.40;1715.20;;;;;;4879455;29;20036;-80
2021/06/14 05:04:43;;;;;;;8.18;3.47;;;435.40;1715.20;;;;;;4879398;29;20032;-81
2021/06/14 05:07:08;;;;;;;9.35;3.53;;;435.20;1740.80;;;;;;4879616;29;20025;-81
2021/06/14 05:09:34;;;;;;;7.88;3.55;;;435.30;1740.80;;;;;;4862814;29;20504;-81
2021/06/14 05:12:00;;;;;;;5.35;2.60;;;435.40;1766.40;;;;;;4862981;29;20041;-81
2021/06/14 05:14:26;;;;;;;6.80;2.63;;;435.50;1715.20;;;;;;4879611;29;20104;-81
2021/06/14 05:16:51;;;;;;;8.75;4.00;;;435.30;1740.80;;;;;;4862959;29;20068;-81
2021/06/14 05:19:17;;;;;;;10.82;3.53;;;435.30;1715.20;;;;;;4879299;29;20100;-81
2021/06/14 05:21:43;;;;;;;4.68;2.92;;;435.50;1766.40;;;;;;4862542;29;20048;-80
2021/06/14 05:24:09;;;;;;;7.15;3.55;;;435.30;1715.20;;;;;;4862644;29;20025;-81
2021/06/14 05:26:35;;;;;;;7.55;3.60;;;435.30;1689.60;;;;;;4862786;29;20031;-80
2021/06/14 05:29:00;;;;;;;6.22;2.25;;;435.40;1715.20;;;;;;4862292;29;20033;-81
2021/06/14 05:31:26;;;;;;;6.72;2.60;;;435.60;1740.80;;;;;;4862547;29;20033;-80
2021/06/14 05:33:52;;;;;;;5.63;2.65;;;435.80;1689.60;;;;;;4879517;29;20029;-81
2021/06/14 05:36:18;;;;;;;5.57;2.70;;;435.90;1689.60;;;;;;4862428;29;20029;-81
2021/06/14 05:38:43;;;;;;;5.63;2.70;;;435.80;1715.20;;;;;;4878352;29;20049;-81
2021/06/14 05:41:10;;;;;;;5.57;3.08;;;436.00;1664.00;;;;;;4862332;29;20037;-81
2021/06/14 05:43:36;;;;;;;7.20;2.60;;;460.80;1689.60;;;;;;4857572;29;20059;-81
2021/06/14 05:46:01;;;;;;;12.07;4.05;;;460.90;1664.00;;;;;;4873834;29;20112;-81
2021/06/14 05:48:27;;;;;;;9.18;2.78;;;461.00;1638.40;;;;;;4851973;29;20128;-81
2021/06/14 05:50:53;;;;;;;5.40;2.65;;;461.00;1664.00;;;;;;4849805;29;20492;-80
2021/06/14 05:53:21;;;;;;;5.35;2.60;;;461.00;1689.60;;;;;;4851629;29;20049;-81
2021/06/14 05:55:48;;;;;;;5.55;2.60;;;460.80;1664.00;;;;;;4856300;29;20029;-81
2021/06/14 05:58:14;;;;;;;6.88;2.92;;;460.80;1689.60;;;;;;4848423;29;20057;-81
2021/06/14 06:00:40;;;;;;;4.95;2.72;;;461.00;1689.60;;;;;;4867735;29;20053;-81
2021/06/14 06:03:05;;;;;;;4.82;2.30;;;461.00;1664.00;;;;;;4870384;29;20041;-80
2021/06/14 06:05:34;;;;;;;5.68;2.53;;;461.00;1664.00;;;;;;4869218;29;20082;-81
2021/06/14 06:08:00;;;;;;;6.90;2.75;;;460.90;1664.00;;;;;;4876525;29;20025;-81
2021/06/14 06:10:26;;;;;;;5.72;2.38;;;460.90;1664.00;;;;;;4862157;29;20029;-81
2021/06/14 06:12:52;;;;;;;8.38;2.60;;;461.10;1664.00;;;;;;4878481;29;20510;-80
2021/06/14 06:15:19;;;;;;;6.57;2.78;;;461.10;1664.00;;;;;;4861938;29;20029;-81
2021/06/14 06:17:46;;;;;;;8.23;2.90;;;461.40;1612.80;;;;;;4861572;29;20088;-81
2021/06/14 06:20:14;;;;;;;9.80;3.30;;;461.40;1638.40;;;;;;4862061;29;20086;-80
2021/06/14 06:22:41;;;;;;;11.75;3.17;;;461.40;1638.40;;;;;;4861465;29;20534;-80
2021/06/14 06:25:09;;;;;;;8.48;2.85;;;461.60;1664.00;;;;;;4861511;29;20488;-81
2021/06/14 06:27:35;;;;;;;7.90;2.90;;;461.60;1612.80;;;;;;4870446;29;20036;-81
2021/06/14 06:30:01;;;;;;;9.95;2.97;;;461.70;1664.00;;;;;;4861785;29;20036;-80
2021/06/14 06:32:27;;;;;;;6.35;2.60;;;486.40;1612.80;;;;;;4868755;29;20094;-81
2021/06/14 06:34:53;;;;;;;9.38;2.97;;;486.40;1612.80;;;;;;4878175;29;20029;-80
2021/06/14 06:37:18;;;;;;;6.90;2.85;;;486.60;1612.80;;;;;;4861581;29;20061;-81
2021/06/14 06:39:44;;;;;;;9.98;3.25;;;486.80;1612.80;;;;;;4878334;29;20040;-81
2021/06/14 06:42:10;;;;;;;11.98;2.80;;;486.90;1638.40;;;;;;4861601;29;20056;-81
2021/06/14 06:44:36;;;;;;;10.50;3.22;;;486.90;1587.20;;;;;;4862418;29;20035;-81
2021/06/14 06:47:04;;;;;;;6.72;3.83;;;486.90;1587.20;;;;;;4872428;29;20041;-80
2021/06/14 06:49:30;;;;;;;8.30;2.97;;;486.90;1612.80;;;;;;4866481;29;20018;-81
2021/06/14 06:51:56;;;;;;;7.55;3.20;;;486.90;1638.40;;;;;;4871978;29;20029;-81
2021/06/14 06:54:22;;;;;;;6.18;2.45;;;487.00;1587.20;;;;;;4861257;29;20093;-81
2021/06/14 06:56:50;;;;;;;5.25;2.72;;;486.70;1638.40;;;;;;4860720;29;20033;-81
2021/06/14 06:59:16;;;;;;;7.15;2.88;;;486.90;1612.80;;;;;;4861475;29;20399;-81
2021/06/14 07:01:41;;;;;;;8.93;2.88;;;486.90;1612.80;;;;;;4861203;29;20029;-81
2021/06/14 07:04:08;;;;;;;8.00;2.90;;;486.80;1612.80;;;;;;4861155;29;20093;-80
2021/06/14 07:06:35;;;;;;;11.88;4.00;;;486.90;1612.80;;;;;;4861255;29;20097;-81
2021/06/14 07:09:00;;;;;;;7.53;3.53;;;487.00;1612.80;;;;;;4858511;29;20026;-81
2021/06/14 07:11:28;;;;;;;7.05;2.63;;;487.20;1561.60;;;;;;4861090;29;20511;-81
2021/06/14 07:13:55;;;;;;;10.43;2.90;;;487.30;1561.60;;;;;;4861273;29;20490;-81
2021/06/14 07:16:21;;;;;;;7.13;3.00;;;512.10;1612.80;;;;;;4855489;29;20029;-81
2021/06/14 07:18:47;;;;;;;7.07;2.97;;;512.20;1510.40;;;;;;4860867;29;20492;-80
2021/06/14 07:21:13;;;;;;;10.43;2.97;;;512.20;1510.40;;;;;;4860920;29;20468;-81
2021/06/14 07:23:39;;;;;;;4.85;2.45;;;512.20;1587.20;;;;;;4860704;29;20052;-81
2021/06/14 07:26:05;;;;;;;7.22;2.88;;;512.40;1510.40;;;;;;4861041;29;20029;-81
2021/06/14 07:28:33;;;;;;;5.10;2.78;;;512.40;1484.80;;;;;;4861080;29;20033;-81
2021/06/14 07:30:59;;;;;;;5.90;2.92;;;;;;;;;;4861312;29;20064;-81
2021/06/14 07:33:25;;;;;;;7.55;2.70;;;512.80;1459.20;;;;;;4860957;29;20029;-81
2021/06/14 07:35:51;;;;;;;11.55;2.60;;;512.80;1433.60;;;;;;4861254;29;20103;-80
2021/06/14 07:38:17;;;;;;;8.65;2.80;;;512.70;1510.40;;;;;;4860431;29;20030;-81
2021/06/14 07:40:43;;;;;;;10.75;3.22;;;512.60;1510.40;;;;;;4869366;29;20037;-81
2021/06/14 07:43:11;;;;;;;9.75;2.50;;;512.50;1459.20;;;;;;4861203;29;20136;-80
2021/06/14 07:45:38;;;;;;;6.28;3.42;;;512.70;1459.20;;;;;;4860836;29;20032;-80
2021/06/14 07:48:04;;;;;;;7.43;2.33;;;512.70;1510.40;;;;;;4860956;29;20562;-81
2021/06/14 07:50:30;;;;;;;9.48;3.00;;;512.80;1510.40;;;;;;4877390;29;20108;-78
2021/06/14 07:52:56;;;;;;;6.93;3.28;;;537.80;1510.40;;;;;;4877812;29;20037;-79
2021/06/14 07:55:23;;;;;;;7.65;2.25;;;537.90;1484.80;;;;;;4877583;29;20029;-80
2021/06/14 07:57:49;;;;;;;5.88;2.45;;;537.80;1459.20;;;;;;4860989;29;20021;-79
2021/06/14 08:00:15;;;;;;;9.55;2.88;;;537.80;1459.20;;;;;;4860437;29;20105;-79
2021/06/14 08:02:41;;;;;;;12.57;2.13;;;537.80;1356.80;;;;;;4879870;29;20033;-83
2021/06/14 08:05:09;;;;;;;4.88;2.38;;;537.90;1408.00;;;;;;4881103;29;20032;-82
2021/06/14 08:07:35;;;;;;;5.65;2.85;;;538.30;1433.60;;;;;;4863476;29;20432;-79
2021/06/14 08:10:05;;;;;;;6.00;2.08;;;538.50;1356.80;;;;;;4863700;29;20169;-81
2021/06/14 08:12:33;;;;;;;8.38;3.00;;;563.20;1408.00;;;;;;4880594;29;20111;-83
2021/06/14 08:14:59;;;;;;;10.00;3.00;;;563.30;1356.80;;;;;;4864182;29;20074;-78
2021/06/14 08:17:28;;;;;;;6.00;2.55;;;563.30;1382.40;;;;;;4880588;29;20029;-81
2021/06/14 08:20:07;;;;;;;8.00;2.47;;;538.50;1382.40;;;;;;4880694;29;20024;-81
2021/06/14 08:25:10;;;;;;;4.57;2.15;;;538.20;1356.80;;;;;;4876450;29;20036;-79
2021/06/14 08:27:41;;;;;;;6.45;2.67;;;538.00;1382.40;;;;;;4878208;29;20041;-78
2021/06/14 08:30:13;;;;;;;3.90;2.13;;;537.90;1408.00;;;;;;4872198;29;20029;-82
2021/06/14 08:32:40;;;;;;;6.13;2.55;;;538.00;1382.40;;;;;;4873043;29;20032;-81
2021/06/14 08:35:08;;;;;;;5.88;3.10;;;537.90;1408.00;;;;;;4880158;29;20028;-77
2021/06/14 08:37:34;;;;;;;4.65;2.47;;;537.90;1433.60;;;;;;4860244;29;20609;-80
2021/06/14 08:40:00;;;;;;;13.13;3.50;;;538.00;1433.60;;;;;;4877110;29;20029;-79
2021/06/14 08:42:26;;;;;;;4.47;2.08;;;537.90;1433.60;;;;;;4879980;29;20044;-79
2021/06/14 08:44:52;;;;;;;6.35;2.63;;;537.90;1408.00;;;;;;4863630;29;20029;-79
2021/06/14 08:47:20;;;;;;;7.47;2.50;;;537.60;1459.20;;;;;;4879810;29;20029;-78
2021/06/14 08:49:46;;;;;;;6.32;2.55;;;537.70;1433.60;;;;;;4880183;29;20108;-78
2021/06/14 08:52:11;;;;;;;7.15;2.58;;;537.70;1459.20;;;;;;4874336;29;20113;-80
2021/06/14 08:54:41;;;;;;;7.35;2.55;;;537.70;1433.60;;;;;;4876203;29;20021;-80
2021/06/14 08:57:08;;;;;;;10.45;2.78;;;537.90;1484.80;;;;;;4863522;29;20025;-81
2021/06/14 08:59:34;;;;;;;5.90;2.47;;;538.00;1459.20;;;;;;4879742;29;20025;-86
2021/06/14 09:02:00;;;;;;;5.18;2.22;;;538.10;1459.20;;;;;;4880034;29;20445;-84
2021/06/14 09:04:26;;;;;;;5.07;2.53;;;538.00;1433.60;;;;;;4879846;29;20056;-77
2021/06/14 09:06:52;;;;;;;5.10;2.13;;;538.00;1459.20;;;;;;4879787;29;20041;-77
2021/06/14 09:09:18;;;;;;;9.13;2.58;;;537.80;1459.20;;;;;;4879452;29;20085;-77
2021/06/14 09:11:52;;;;;;;8.88;2.50;;;538.00;1459.20;;;;;;4879744;29;20437;-79
2021/06/14 09:14:20;;;;;;;5.55;2.45;;;538.30;1408.00;;;;;;4863014;29;20033;-78
2021/06/14 09:16:47;;;;;;;17.58;2.92;;;538.30;1459.20;;;;;;4879735;29;20086;-78
2021/06/14 09:19:34;;;;;;;7.32;2.53;;;563.20;1433.60;;;;;;4859821;29;20047;-79
2021/06/14 09:22:11;;;;;;;11.20;2.85;;;563.40;1459.20;;;;;;4874089;29;20120;-78
2021/06/14 09:24:36;;;;;;;6.05;2.20;;;563.40;1382.40;;;;;;4879230;29;20607;-83
2021/06/14 09:27:02;;;;;;;8.75;2.50;;;563.60;1408.00;;;;;;4862641;29;20037;-80
2021/06/14 09:29:29;;;;;;;6.32;2.40;;;563.60;1408.00;;;;;;4879296;29;20514;-79
2021/06/14 09:32:01;;;;;;;17.30;3.10;;;563.80;1408.00;;;;;;4862741;29;20096;-79
2021/06/14 09:34:39;;;;;;;4.78;1.90;;;563.80;1382.40;;;;;;4862797;29;20116;-79
2021/06/14 09:37:08;;;;;;;11.05;2.30;;;564.00;1356.80;;;;;;4859616;29;20032;-81
2021/06/14 09:39:43;;;;;;;4.68;2.22;;;564.10;1280.00;;;;;;4878778;29;20025;-79
2021/06/14 09:42:26;;;;;;;10.05;2.13;;;588.80;1305.60;;;;;;4879140;29;20025;-83
2021/06/14 09:44:53;;;;;;;5.40;2.33;;;589.10;1305.60;;;;;;4879493;29;20029;-84
2021/06/14 09:47:20;;;;;;;5.97;2.00;;;589.00;1280.00;;;;;;4877314;29;20025;-78
2021/06/14 09:49:57;;;;;;;6.57;2.00;;;564.10;1305.60;;;;;;4863408;29;20025;-78
2021/06/14 09:52:23;;;;;;;4.85;2.00;;;588.90;1280.00;;;;;;4865405;29;20057;-78
2021/06/14 09:54:49;;;;;;;11.20;1.73;;;589.10;1280.00;;;;;;4878923;29;20531;-83
2021/06/14 09:57:26;;;;;;;4.93;1.98;;;564.00;1254.40;;;;;;4879095;29;20104;-79
2021/06/14 09:59:52;;;;;;;3.88;2.45;;;564.00;1280.00;;;;;;4861954;29;20467;-83
2021/06/14 10:02:18;;;;;;;3.80;2.00;;;564.00;1305.60;;;;;;4861958;29;20136;-78
2021/06/14 10:04:45;;;;;;;4.13;1.88;;;563.90;1305.60;;;;;;4878882;29;20052;-79
2021/06/14 10:07:16;;;;;;;9.63;2.28;;;563.70;1305.60;;;;;;4862135;29;20025;-79
2021/06/14 10:09:47;;;;;;;3.13;1.65;;;563.70;1305.60;;;;;;4878620;29;20438;-82
2021/06/14 10:12:31;;;;;;;6.32;1.75;;;564.00;1280.00;;;;;;4878624;29;20036;-79
2021/06/14 10:14:59;;;;;;;5.90;2.05;;;588.90;1305.60;;;;;;4867754;29;20022;-83
2021/06/14 10:17:38;;;;;;;5.93;1.88;;;589.40;1305.60;;;;;;4861583;29;20399;-80
2021/06/14 10:20:22;;;;;;;3.80;2.00;;;589.30;1254.40;;;;;;4858583;29;20373;-79
2021/06/14 10:22:50;;;;;;;3.92;2.03;;;589.40;1228.80;;;;;;4873078;29;20048;-79
2021/06/14 10:25:17;;;;;;;9.38;1.92;;;589.70;1177.60;;;;;;4861267;29;20035;-79
2021/06/14 10:27:44;;;;;;;4.38;1.85;;;614.40;1254.40;;;;;;4878136;29;20495;-79
2021/06/14 10:30:12;;;;;;;6.03;2.22;;;589.60;1228.80;;;;;;4878459;29;20025;-79
2021/06/14 10:32:39;;;;;;;3.08;1.50;;;589.70;1228.80;;;;;;4861465;29;20025;-79
2021/06/14 10:35:08;;;;;;;6.68;1.83;;;589.60;1203.20;;;;;;4861689;29;20112;-82
2021/06/14 10:37:44;;;;;;;4.38;2.13;;;589.30;1203.20;;;;;;4861377;29;20033;-82
2021/06/14 10:40:10;;;;;;;;;;;589.10;1177.60;;;;;;4878262;29;20028;-79
2021/06/14 10:42:36;;;;;;;6.28;1.67;;;589.00;1203.20;;;;;;4878252;29;20271;-79
2021/06/14 10:45:03;;;;;;;3.45;1.83;;;588.80;1203.20;;;;;;4878293;29;20029;-80
2021/06/14 10:47:29;;;;;;;5.60;1.60;;;564.10;1254.40;;;;;;4878072;29;20053;-80
2021/06/14 10:49:56;;;;;;;6.72;2.47;;;564.00;1254.40;;;;;;4878303;29;20029;-83
2021/06/14 10:52:22;;;;;;;15.13;3.90;;;563.90;1280.00;;;;;;4878230;29;20037;-83
2021/06/14 10:54:48;;;;;;;10.20;2.28;;;563.90;1254.40;;;;;;4877856;29;20029;-80
2021/06/14 10:57:14;;;;;;;4.40;1.65;;;563.70;1254.40;;;;;;4871935;29;20073;-79
2021/06/14 10:59:42;;;;;;;6.78;2.30;;;563.60;1280.00;;;;;;4864414;29;20033;-78
2021/06/14 11:02:10;;;;;;;6.55;2.10;;;563.50;1280.00;;;;;;4867743;29;20041;-78
2021/06/14 11:04:36;;;;;;;7.35;2.10;;;563.50;1305.60;;;;;;4877897;29;20040;-78
2021/06/14 11:07:02;;;;;;;7.72;2.30;;;563.50;1305.60;;;;;;4861438;29;20072;-83
2021/06/14 11:09:41;;;;;;;7.70;4.00;;;563.50;1305.60;;;;;;4877839;29;20025;-79
2021/06/14 11:12:09;;;;;;;6.28;2.88;;;563.60;1305.60;;;;;;4859119;29;20025;-79
2021/06/14 11:14:45;;;;;;;10.75;3.72;;;563.60;1305.60;;;;;;4861125;29;20049;-81
2021/06/14 11:17:23;;;;;;;14.90;3.65;;;563.30;1305.60;;;;;;4877928;29;20032;-77
2021/06/14 11:20:09;;;;;;;6.88;3.10;;;563.20;1356.80;;;;;;4858846;29;20040;-81
2021/06/14 11:22:41;;;;;;;7.38;3.63;;;563.20;1331.20;;;;;;4877804;29;20060;-80
2021/06/14 11:25:21;;;;;;;9.20;4.95;;;563.20;1305.60;;;;;;4852422;29;20029;-80
2021/06/14 11:27:47;;;;;;;7.13;2.67;;;563.30;1305.60;;;;;;4877497;29;20033;-79
2021/06/14 11:30:16;;;;;;;9.60;2.90;;;563.50;1280.00;;;;;;4861198;29;20029;-78
2021/06/14 11:32:43;;;;;;;5.13;2.70;;;563.90;1305.60;;;;;;4860504;29;20048;-83
2021/06/14 11:35:09;;;;;;;6.45;1.90;;;588.80;1305.60;;;;;;4858273;29;20116;-81
2021/06/14 11:37:40;;;;;;;2.50;1.80;;;588.90;1280.00;;;;;;4863223;29;20055;-82
2021/06/14 11:40:08;;;;;;;4.70;2.20;;;589.00;1254.40;;;;;;4880668;29;20017;-80
2021/06/14 11:42:53;;;;;;;6.55;2.40;;;589.40;1254.40;;;;;;4864430;29;20077;-81
2021/06/14 11:45:31;;;;;;;7.78;1.95;;;589.40;1203.20;;;;;;4881069;29;20084;-82
2021/06/14 11:48:00;;;;;;;6.82;1.70;;;589.30;1203.20;;;;;;4864566;29;20033;-80
2021/06/14 11:50:32;;;;;;;7.45;1.95;;;589.00;1228.80;;;;;;4864288;29;20057;-80
2021/06/14 11:53:05;;;;;;;7.63;2.05;;;564.10;1228.80;;;;;;4863715;29;20129;-84
2021/06/14 11:55:37;;;;;;;4.65;1.42;;;564.00;1100.80;;;;;;4880731;29;20041;-79
2021/06/14 11:58:07;;;;;;;8.68;2.13;;;564.00;1152.00;;;;;;4861065;29;20032;-79
2021/06/14 12:00:41;;;;;;;5.13;1.55;;;564.10;1177.60;;;;;;4875306;29;20025;-82
2021/06/14 12:03:25;;;;;;;6.88;1.95;;;588.90;1177.60;;;;;;4863553;29;20044;-79
2021/06/14 12:05:54;;;;;;;5.85;1.60;;;589.10;1203.20;;;;;;4864021;29;20033;-78
2021/06/14 12:08:26;;;;;;;8.82;1.90;;;589.40;1203.20;;;;;;4869454;29;20541;-82
2021/06/14 12:10:55;;;;;;;6.20;1.88;;;589.70;1203.20;;;;;;4863471;29;20021;-80
2021/06/14 12:13:21;;;;;;;5.20;1.90;;;614.60;1100.80;;;;;;4864191;29;20121;-80
2021/06/14 12:15:50;;;;;;;5.80;2.50;;;614.80;1075.20;;;;;;4857541;29;20033;-83
2021/06/14 12:18:18;;;;;;;5.78;2.10;;;615.00;1075.20;;;;;;4880457;29;20053;-84
2021/06/14 12:20:52;;;;;;;3.08;1.70;;;614.80;1126.40;;;;;;4880865;29;20040;-83
2021/06/14 12:23:18;;;;;;;5.68;2.00;;;589.50;1152.00;;;;;;4863658;29;20068;-80